Time;durP1;ratioP1;P1;durP2;ratioP2;P2;SDS_P1;SDS_P2;PMS_P1;PMS_P2;Temp;Humidity;BMP_temperature;BMP_pressure;BME280_temperature;BME280_humidity;BME280_pressure;Samples;Min_cycle;Max_cycle;Signal;HPM_P1;HPM_P2
2023/05/02 07:22:50;;;;;;;8.75;3.53;;;;;;;-145.79;60.79;78585.66;5299282;27;20428;-67
2023/05/02 07:25:21;;;;;;;8.02;2.53;;;;;;;-145.79;61.24;78583.53;5280176;28;20037;-67
2023/05/02 07:27:54;;;;;;;9.95;2.90;;;;;;;-145.79;59.76;78598.38;5277140;28;20407;-67
2023/05/02 07:30:28;;;;;;;8.65;3.42;;;;;;;-145.79;59.82;78615.34;5277531;28;20024;-68
2023/05/02 07:32:59;;;;;;;8.82;3.22;;;;;;;-145.79;63.42;78600.50;5273278;28;20021;-69
2023/05/02 07:35:31;;;;;;;8.95;3.33;;;;;;;-145.79;60.30;78617.44;5263247;28;20021;-66
2023/05/02 07:38:02;;;;;;;9.23;2.70;;;;;;;-145.79;61.90;78608.97;5275528;28;20037;-65
2023/05/02 07:40:33;;;;;;;14.93;10.32;;;;;;;-145.79;62.40;78589.88;5271709;28;20115;-65
2023/05/02 07:43:05;;;;;;;6.13;2.60;;;;;;;-145.79;62.62;78594.13;5277462;28;20041;-65
2023/05/02 07:45:36;;;;;;;7.57;2.78;;;;;;;-145.79;63.54;78579.28;5278701;28;20017;-65
2023/05/02 07:48:07;;;;;;;7.13;3.13;;;;;;;-145.79;60.93;78581.41;5279518;28;20135;-65
2023/05/02 07:50:41;;;;;;;5.10;3.13;;;;;;;-145.79;61.94;78566.56;5279287;28;20476;-66
2023/05/02 07:53:12;;;;;;;5.80;2.95;;;;;;;-145.79;61.71;78543.25;5278975;28;20355;-67
2023/05/02 07:55:44;;;;;;;7.32;2.88;;;;;;;-145.79;63.08;78543.25;5271640;28;20029;-65
2023/05/02 07:58:15;;;;;;;6.78;2.80;;;;;;;-145.79;61.86;78551.72;5275428;28;20052;-65
2023/05/02 08:00:47;;;;;;;6.05;3.13;;;;;;;-145.79;62.16;78553.84;5274004;28;20025;-65
2023/05/02 08:03:18;;;;;;;9.50;2.72;;;;;;;-145.79;58.57;78564.44;5258909;28;20048;-65
2023/05/02 08:05:49;;;;;;;21.65;15.35;;;;;;;-145.79;59.14;78570.81;5257996;28;20122;-65
2023/05/02 08:08:21;;;;;;;10.95;3.47;;;;;;;-145.79;59.30;78596.25;5258962;28;20082;-64
2023/05/02 08:10:52;;;;;;;9.65;4.43;;;;;;;-145.79;58.76;78617.44;5272174;28;20043;-65
2023/05/02 08:13:23;;;;;;;22.02;12.65;;;;;;;-145.79;60.49;78606.84;5268812;28;20056;-66
2023/05/02 08:15:58;;;;;;;10.20;4.65;;;;;;;-145.79;61.46;78602.59;5258055;28;20534;-65
2023/05/02 08:18:29;;;;;;;9.85;3.50;;;;;;;-145.79;57.08;78634.41;5258421;28;20025;-65
2023/05/02 08:21:01;;;;;;;7.55;2.83;;;;;;;-145.79;58.75;78621.69;5257356;28;20050;-65
2023/05/02 08:23:32;;;;;;;6.78;3.60;;;;;;;-145.79;58.34;78619.56;5260004;28;20106;-65
2023/05/02 08:26:03;;;;;;;8.02;2.80;;;;;;;-145.79;56.65;78645.00;5258236;28;20114;-66
2023/05/02 08:28:35;;;;;;;10.40;3.42;;;;;;;-145.79;56.62;78674.69;5261466;28;20032;-66
2023/05/02 08:31:06;;;;;;;9.13;3.05;;;;;;;-145.79;56.37;78672.56;5263423;28;20029;-67
2023/05/02 08:33:37;;;;;;;8.48;3.85;;;;;;;-145.79;55.55;78683.19;5262636;28;20159;-66
2023/05/02 08:36:13;;;;;;;9.15;3.67;;;;;;;-145.79;55.80;78678.94;5264383;28;20480;-67
2023/05/02 08:38:44;;;;;;;;;;;;;;;-145.79;55.38;78661.97;5264963;28;20159;-67
2023/05/02 08:41:17;;;;;;;7.50;3.28;;;;;;;-145.79;54.95;78695.91;5263501;28;20011;-67
2023/05/02 08:43:48;;;;;;;9.63;3.00;;;;;;;-145.79;55.13;78674.69;5264729;28;20031;-68
2023/05/02 08:46:22;;;;;;;6.35;3.15;;;;;;;-145.79;55.74;78657.75;5263785;28;20020;-67
2023/05/02 08:48:57;;;;;;;5.30;2.58;;;;;;;-145.79;58.70;78628.06;5243535;28;20021;-67
2023/05/02 08:51:32;;;;;;;6.70;2.65;;;;;;;-145.79;55.91;78623.81;5262316;28;20020;-67
2023/05/02 08:54:08;;;;;;;9.55;3.22;;;;;;;-145.79;56.24;78615.34;5246996;28;20445;-66
2023/05/02 08:56:41;;;;;;;6.38;2.60;;;;;;;-145.79;53.31;78611.09;5257552;28;20431;-67
2023/05/02 08:59:12;;;;;;;7.82;2.92;;;;;;;-145.79;53.06;78619.56;5244408;28;20028;-66
2023/05/02 09:01:45;;;;;;;5.80;2.70;;;;;;;-145.79;53.00;78628.06;5253665;28;20029;-66
2023/05/02 09:04:21;;;;;;;6.45;2.50;;;;;;;-145.79;51.55;78630.16;5256224;28;20102;-66
2023/05/02 09:06:53;;;;;;;5.13;2.38;;;;;;;-145.79;51.15;78611.09;5243552;28;20021;-66
2023/05/02 09:09:25;;;;;;;5.10;2.60;;;;;;;-145.79;52.04;78604.72;5242657;28;20174;-66
2023/05/02 09:11:56;;;;;;;9.13;3.40;;;;;;;-145.79;51.81;78585.66;5243242;28;20029;-66
2023/05/02 09:14:28;;;;;;;7.60;2.53;;;;;;;-145.79;56.81;78547.47;5259077;28;20062;-66
2023/05/02 09:17:00;;;;;;;5.75;3.63;;;;;;;-145.79;52.15;78547.47;5252076;28;20022;-66
2023/05/02 09:19:34;;;;;;;6.35;3.10;;;;;;;-145.79;51.25;78551.72;5242926;28;20063;-66
2023/05/02 09:22:06;;;;;;;5.88;2.53;;;;;;;-145.79;53.79;78509.31;5257439;28;20404;-66
2023/05/02 09:24:37;;;;;;;7.75;2.70;;;;;;;-145.79;50.12;78528.41;5262869;28;20037;-66
2023/05/02 09:27:09;;;;;;;5.65;3.33;;;;;;;-145.79;49.32;78534.75;5251519;28;20025;-66
2023/05/02 09:29:42;;;;;;;6.65;2.70;;;;;;;-145.79;48.81;78547.47;5263215;28;20033;-66
2023/05/02 09:32:15;;;;;;;8.00;3.55;;;;;;;-145.79;48.56;78543.25;5262560;28;20021;-67
2023/05/02 09:35:05;;;;;;;6.70;2.50;;;;;;;-145.79;49.52;78534.75;5260105;28;20036;-67
2023/05/02 09:37:37;;;;;;;5.68;3.17;;;;;;;-145.79;48.76;78558.09;5249267;28;20029;-67
2023/05/02 09:40:09;;;;;;;4.72;2.40;;;;;;;-145.79;48.17;78594.13;5263389;28;20037;-67
2023/05/02 09:42:41;;;;;;;7.45;2.80;;;;;;;-145.79;50.83;78562.31;5261688;28;20430;-66
2023/05/02 09:45:22;;;;;;;4.22;2.15;;;;;;;-145.79;50.10;78577.16;5261884;28;20033;-66
2023/05/02 09:47:53;;;;;;;5.10;2.83;;;;;;;-145.79;48.82;78606.84;5263251;28;20028;-66
2023/05/02 09:50:33;;;;;;;7.38;2.60;;;;;;;-145.79;49.96;78589.88;5263207;28;20021;-66
2023/05/02 09:53:08;;;;;;;3.97;2.15;;;;;;;-145.79;48.71;78598.38;5262401;28;20033;-67
2023/05/02 09:55:39;;;;;;;4.88;2.30;;;;;;;-145.79;47.50;78558.09;5251990;28;20071;-67
2023/05/02 09:58:22;;;;;;;6.88;2.90;;;;;;;-145.79;48.27;78530.53;5255873;28;20037;-65
2023/05/02 10:00:53;;;;;;;5.03;2.88;;;;;;;-145.79;47.72;78513.56;5263070;28;20032;-64
2023/05/02 10:03:27;;;;;;;5.35;3.20;;;;;;;-145.79;47.08;78496.59;5262607;28;20025;-65
2023/05/02 10:05:59;;;;;;;7.28;2.75;;;;;;;-145.79;48.10;78481.75;5262436;28;20032;-68
2023/05/02 10:08:35;;;;;;;5.47;2.28;;;;;;;-145.79;46.69;78522.03;5261030;28;20032;-66
2023/05/02 10:11:08;;;;;;;7.22;2.88;;;;;;;-145.79;46.45;78522.03;5262810;28;20036;-66
2023/05/02 10:13:41;;;;;;;5.50;2.95;;;;;;;-145.79;46.75;78494.47;5242242;28;20112;-67
2023/05/02 10:16:20;;;;;;;6.35;2.80;;;;;;;-145.79;45.48;78492.34;5242040;28;20097;-67
2023/05/02 10:19:01;;;;;;;4.75;2.38;;;;;;;-145.79;46.31;78488.13;5241663;28;20419;-66
2023/05/02 10:21:33;;;;;;;5.47;2.80;;;;;;;-145.79;46.30;78496.59;5241069;28;20045;-66
2023/05/02 10:24:05;;;;;;;5.93;3.08;;;;;;;-145.79;43.93;78500.84;5241808;28;20303;-67
2023/05/02 10:26:37;;;;;;;21.38;15.82;;;;;;;-145.79;44.07;78505.06;5240814;28;20059;-68
2023/05/02 10:29:10;;;;;;;11.20;8.75;;;;;;;-145.79;44.45;78483.88;5242027;28;20022;-67
2023/05/02 10:31:44;;;;;;;7.22;3.53;;;;;;;-145.79;45.19;78479.63;5241879;28;20074;-68
2023/05/02 10:34:17;;;;;;;6.40;3.33;;;;;;;-145.79;47.33;78498.72;5240709;28;20021;-67
2023/05/02 10:36:48;;;;;;;7.63;3.40;;;;;;;-145.79;47.08;78513.56;5241517;28;20020;-68
2023/05/02 10:39:23;;;;;;;6.30;3.35;;;;;;;-145.79;47.21;78543.25;5241048;28;20022;-67
2023/05/02 10:41:56;;;;;;;8.02;3.92;;;;;;;-145.79;47.57;78549.59;5241027;28;20048;-67
2023/05/02 10:44:35;;;;;;;7.88;2.88;;;;;;;-145.79;48.57;78530.53;5241437;28;20021;-67
2023/05/02 10:47:25;;;;;;;10.65;3.40;;;;;;;-145.79;48.66;78522.03;5256784;28;20380;-68
2023/05/02 10:49:59;;;;;;;6.70;3.08;;;;;;;-145.79;48.26;78505.06;5261958;28;20069;-67
2023/05/02 10:52:37;;;;;;;7.05;2.97;;;;;;;-145.79;46.22;78517.81;5261822;28;20066;-67
2023/05/02 10:55:15;;;;;;;6.53;3.45;;;;;;;-145.79;46.47;78517.81;5261121;28;20029;-65
2023/05/02 10:58:05;;;;;;;7.25;3.45;;;;;;;-145.79;46.31;78513.56;5262179;28;20119;-67
2023/05/02 11:00:39;;;;;;;7.78;3.35;;;;;;;-145.79;45.88;78515.69;5262440;28;20049;-67
2023/05/02 11:03:10;;;;;;;8.15;3.95;;;;;;;-145.79;47.63;78509.31;5260432;28;20029;-67
2023/05/02 11:06:04;;;;;;;5.05;3.13;;;;;;;-145.79;46.77;78479.63;5262140;28;20423;-65
2023/05/02 11:08:35;;;;;;;6.07;3.25;;;;;;;-145.79;44.74;78469.03;5260536;28;20095;-66
2023/05/02 11:11:42;;;;;;;4.75;2.90;;;;;;;-145.79;44.75;78481.75;5262195;28;20423;-65
2023/05/02 11:14:26;;;;;;;6.72;3.67;;;;;;;-145.79;45.11;78464.78;5261927;28;20039;-66
2023/05/02 11:16:57;;;;;;;8.95;3.22;;;;;;;-145.79;43.47;78496.59;5259518;28;20033;-66
2023/05/02 11:19:55;;;;;;;5.22;2.88;;;;;;;-145.79;43.71;78475.41;5259991;28;20044;-67
2023/05/02 11:22:32;;;;;;;6.35;3.10;;;;;;;-145.79;42.86;78481.75;5239592;28;20052;-66
2023/05/02 11:25:04;;;;;;;5.40;2.65;;;;;;;-145.79;42.23;78462.66;5241796;28;20045;-66
2023/05/02 11:27:40;;;;;;;5.72;2.90;;;;;;;-145.79;41.59;78454.19;5244870;28;20021;-67
2023/05/02 11:30:12;;;;;;;4.85;2.60;;;;;;;-145.79;42.12;78456.31;5250254;28;20025;-67
2023/05/02 11:32:48;;;;;;;4.03;2.92;;;;;;;-145.79;43.37;78456.31;5259707;28;20170;-67
2023/05/02 11:35:30;;;;;;;6.85;2.97;;;;;;;-145.79;42.84;78486.00;5258525;28;20056;-66
2023/05/02 11:38:03;;;;;;;6.43;4.18;;;;;;;-145.79;43.31;78517.81;5240195;28;20024;-66
2023/05/02 11:40:37;;;;;;;8.13;3.08;;;;;;;-145.79;43.62;78494.47;5240863;28;20148;-66
2023/05/02 11:43:16;;;;;;;6.30;3.35;;;;;;;-145.79;43.03;78456.31;5244622;28;20025;-67
2023/05/02 11:45:48;;;;;;;8.57;4.45;;;;;;;-145.79;43.30;78454.19;5247308;28;20381;-67
2023/05/02 11:48:26;;;;;;;5.07;2.85;;;;;;;-145.79;43.90;78433.00;5254136;28;20025;-67
2023/05/02 11:51:05;;;;;;;5.18;2.72;;;;;;;-145.79;42.80;78454.19;5258570;28;20024;-67
2023/05/02 11:53:39;;;;;;;4.80;3.17;;;;;;;-145.79;42.60;78466.91;5254178;28;20053;-66
2023/05/02 11:56:10;;;;;;;6.20;3.08;;;;;;;-145.79;42.79;78483.88;5257975;28;20484;-67
2023/05/02 11:58:43;;;;;;;5.80;2.92;;;;;;;-145.79;42.90;78454.19;5253222;28;20032;-66
2023/05/02 12:01:16;;;;;;;6.85;4.47;;;;;;;-145.79;42.22;78422.38;5252165;28;20491;-65
2023/05/02 12:03:48;;;;;;;7.95;3.55;;;;;;;-145.79;40.70;78403.31;5241012;28;20028;-66
2023/05/02 12:06:21;;;;;;;8.95;3.35;;;;;;;-145.79;43.08;78382.09;5243786;28;20034;-67
2023/05/02 12:09:06;;;;;;;5.85;2.80;;;;;;;-145.79;40.87;78420.28;5243174;28;20032;-68
2023/05/02 12:11:37;;;;;;;6.22;2.80;;;;;;;-145.79;41.76;78452.06;5255085;28;20020;-69
2023/05/02 12:14:08;;;;;;;5.85;3.03;;;;;;;-145.79;41.90;78447.84;5265352;28;20032;-66
2023/05/02 12:16:40;;;;;;;5.03;3.35;;;;;;;-145.79;40.37;78475.41;5264879;28;20059;-67
2023/05/02 12:19:13;;;;;;;9.63;4.75;;;;;;;-145.79;40.99;78462.66;5251618;28;20026;-67
2023/05/02 12:21:44;;;;;;;6.13;2.97;;;;;;;-145.79;41.81;78441.47;5264156;28;20348;-67
2023/05/02 12:24:16;;;;;;;7.03;4.90;;;;;;;-145.79;40.78;78409.66;5254061;28;20029;-68
2023/05/02 12:26:47;;;;;;;6.32;2.78;;;;;;;-145.79;40.58;78394.81;5243213;28;20026;-67
2023/05/02 12:29:18;;;;;;;5.07;2.50;;;;;;;-145.79;39.87;78411.78;5264731;28;20350;-68
2023/05/02 12:31:50;;;;;;;9.85;6.93;;;;;;;-145.79;41.21;78379.97;5264561;28;20016;-67
2023/05/02 12:34:32;;;;;;;6.78;4.15;;;;;;;-145.79;39.90;78367.25;5264477;28;20455;-67
2023/05/02 12:37:05;;;;;;;3.65;2.63;;;;;;;-145.79;39.38;78373.63;5259653;28;20515;-67
2023/05/02 12:39:43;;;;;;;3.70;2.63;;;;;;;-145.79;39.56;78339.69;5243394;28;20062;-66
2023/05/02 12:42:16;;;;;;;6.80;2.92;;;;;;;-145.79;38.73;78337.59;5248807;28;20061;-67
2023/05/02 12:44:52;;;;;;;6.03;3.05;;;;;;;-145.79;38.36;78335.47;5249488;28;20376;-66
2023/05/02 12:47:23;;;;;;;6.20;2.70;;;;;;;-145.79;38.28;78346.06;5244467;28;20113;-66
2023/05/02 12:49:56;;;;;;;9.85;3.13;;;;;;;-145.79;38.70;78365.16;5261827;28;20108;-66
2023/05/02 12:52:56;;;;;;;5.22;2.72;;;;;;;-145.79;38.82;78390.59;5256187;28;20032;-67
2023/05/02 12:55:28;;;;;;;6.32;3.20;;;;;;;-145.79;39.18;78407.53;5246301;28;20040;-66
2023/05/02 12:58:03;;;;;;;4.82;2.75;;;;;;;-145.79;39.47;78369.38;5241924;28;20017;-66
2023/05/02 13:00:36;;;;;;;;;;;;;;;-145.79;39.12;78354.53;5259840;28;20060;-67
2023/05/02 13:03:09;;;;;;;9.32;3.05;;;;;;;-145.79;38.58;78390.59;5246618;28;19913;-68
2023/05/02 13:05:41;;;;;;;6.05;3.30;;;;;;;-145.79;38.70;78403.31;5249947;28;20052;-67
2023/05/02 13:08:12;;;;;;;3.65;2.63;;;;;;;-145.79;38.88;78365.16;5261774;28;20035;-67
2023/05/02 13:10:43;;;;;;;5.70;3.03;;;;;;;-145.79;38.95;78360.91;5280304;28;20024;-68
2023/05/02 13:13:16;;;;;;;6.95;2.92;;;;;;;-145.79;39.06;78382.09;5283585;28;20028;-69
2023/05/02 13:15:47;;;;;;;5.07;3.25;;;;;;;-145.79;38.23;78394.81;5260339;28;20499;-68
2023/05/02 13:18:21;;;;;;;4.05;2.83;;;;;;;-145.79;38.36;78343.94;5261416;28;20037;-68
2023/05/02 13:20:53;;;;;;;5.82;2.95;;;;;;;-145.79;39.85;78318.50;5242163;28;20113;-67
2023/05/02 13:23:24;;;;;;;5.65;2.55;;;;;;;-145.79;37.81;78261.25;5260829;28;20121;-68
2023/05/02 13:25:56;;;;;;;3.47;2.40;;;;;;;-145.79;37.60;78208.25;5261652;28;20029;-67
2023/05/02 13:28:31;;;;;;;4.72;2.67;;;;;;;-145.79;36.88;78193.41;5262036;28;20086;-68
2023/05/02 13:31:03;;;;;;;;;;;;;;;-145.79;36.30;78182.81;5262415;28;20025;-68
2023/05/02 13:33:34;;;;;;;4.03;2.50;;;;;;;-145.79;36.66;78235.81;5261951;28;19919;-67
2023/05/02 13:36:06;;;;;;;4.25;2.55;;;;;;;-145.79;36.62;78242.19;5255055;28;20088;-67
2023/05/02 13:38:38;;;;;;;6.30;2.42;;;;;;;-145.79;36.41;78216.72;5245708;28;20024;-67
2023/05/02 13:41:15;;;;;;;5.93;2.72;;;;;;;-145.79;36.63;78191.28;5257759;28;20037;-68
2023/05/02 13:43:47;;;;;;;4.43;2.60;;;;;;;-145.79;36.04;78174.34;5261269;28;20029;-69
2023/05/02 13:46:18;;;;;;;13.55;9.55;;;;;;;-145.79;34.76;78182.81;5262719;28;20100;-68
2023/05/02 13:48:49;;;;;;;8.07;2.78;;;;;;;-145.79;35.31;78174.34;5251957;28;20029;-68
2023/05/02 13:51:21;;;;;;;9.40;5.20;;;;;;;-145.79;34.97;78201.91;5261372;28;20027;-67
2023/05/02 13:53:52;;;;;;;7.85;3.28;;;;;;;-145.79;35.06;78153.13;5249080;28;20024;-68
2023/05/02 13:56:23;;;;;;;6.40;3.25;;;;;;;-145.79;35.28;78157.38;5242386;28;20079;-68
2023/05/02 13:58:55;;;;;;;6.85;3.08;;;;;;;-145.79;35.06;78140.41;5241708;28;20028;-67
2023/05/02 14:01:27;;;;;;;6.05;3.08;;;;;;;-145.79;34.72;78167.97;5239990;28;20074;-67
2023/05/02 14:03:59;;;;;;;4.90;2.53;;;;;;;-145.79;34.65;78151.00;5258969;28;20419;-69
2023/05/02 14:06:30;;;;;;;4.78;2.65;;;;;;;-145.79;33.93;78184.94;5261416;28;20020;-67
2023/05/02 14:09:02;;;;;;;10.00;6.40;;;;;;;-145.79;34.73;78191.28;5261991;28;20021;-67
2023/05/02 14:11:34;;;;;;;6.80;3.10;;;;;;;-145.79;34.50;78210.38;5255702;28;20056;-67
2023/05/02 14:14:06;;;;;;;8.40;6.65;;;;;;;-145.79;35.37;78199.78;5261308;28;20072;-67
2023/05/02 14:16:38;;;;;;;6.38;3.78;;;;;;;-145.79;34.07;78138.28;5247900;28;20027;-68
2023/05/02 14:19:09;;;;;;;5.75;3.10;;;;;;;-145.79;34.13;78208.25;5241160;28;20033;-68
2023/05/02 14:21:40;;;;;;;6.10;2.95;;;;;;;-145.79;34.78;78136.19;5241435;28;20436;-68
2023/05/02 14:24:13;;;;;;;4.82;2.85;;;;;;;-145.79;34.70;78102.25;5241771;28;20132;-67
2023/05/02 14:26:45;;;;;;;6.30;2.97;;;;;;;-145.79;34.45;78108.63;5242906;28;20028;-67
2023/05/02 14:29:17;;;;;;;7.75;3.72;;;;;;;-145.79;34.79;78199.78;5240883;28;20025;-67
2023/05/02 14:31:48;;;;;;;5.78;2.80;;;;;;;-145.79;36.18;78182.81;5241066;28;20025;-67
2023/05/02 14:34:20;;;;;;;4.95;3.28;;;;;;;-145.79;34.41;78170.09;5241022;28;20431;-68
2023/05/02 14:36:52;;;;;;;7.13;3.58;;;;;;;-145.79;34.55;78146.78;5241723;28;20064;-67
2023/05/02 14:39:26;;;;;;;5.18;2.88;;;;;;;-145.79;34.53;78131.94;5240286;28;20107;-65
2023/05/02 14:41:57;;;;;;;4.75;2.92;;;;;;;-145.79;34.12;78127.69;5253463;28;20476;-68
2023/05/02 14:44:29;;;;;;;10.40;8.73;;;;;;;-145.79;33.84;78108.63;5251463;28;20032;-66
2023/05/02 14:47:01;;;;;;;6.28;3.88;;;;;;;-145.79;34.03;78129.81;5261522;28;20111;-67
2023/05/02 14:49:33;;;;;;;7.20;3.00;;;;;;;-145.79;33.99;78121.34;5262246;28;20029;-66
2023/05/02 14:52:04;;;;;;;8.48;3.38;;;;;;;-145.79;34.17;78102.25;5262230;28;20103;-67
2023/05/02 14:54:36;;;;;;;5.93;3.00;;;;;;;-145.79;33.94;78123.44;5261848;28;20472;-68
2023/05/02 14:57:07;;;;;;;5.60;3.55;;;;;;;-145.79;34.02;78123.44;5241243;28;20037;-67
2023/05/02 14:59:39;;;;;;;8.13;5.07;;;;;;;-145.79;34.46;78136.19;5249211;28;20380;-68
2023/05/02 15:02:10;;;;;;;8.65;3.47;;;;;;;-145.79;34.05;78153.13;5259996;28;20025;-67
2023/05/02 15:04:41;;;;;;;8.63;4.32;;;;;;;-145.79;33.93;78184.94;5261571;28;20154;-67
2023/05/02 15:07:13;;;;;;;6.32;3.30;;;;;;;-145.79;34.17;78170.09;5261330;28;20104;-67
2023/05/02 15:09:46;;;;;;;6.63;3.67;;;;;;;-145.79;34.21;78184.94;5261036;28;20027;-67
2023/05/02 15:12:18;;;;;;;5.65;3.55;;;;;;;-145.79;34.73;78178.56;5262212;28;20021;-68
2023/05/02 15:14:49;;;;;;;4.75;3.58;;;;;;;-145.79;34.56;78176.47;5260923;28;20028;-68
2023/05/02 15:17:21;;;;;;;6.90;3.75;;;;;;;-145.79;34.86;78159.50;5261491;28;20198;-68
2023/05/02 15:19:52;;;;;;;11.57;7.10;;;;;;;-145.79;34.83;78153.13;5247472;28;20025;-66
2023/05/02 15:22:24;;;;;;;7.28;3.33;;;;;;;-145.79;34.26;78187.06;5247230;28;20555;-67
2023/05/02 15:24:56;;;;;;;6.15;3.00;;;;;;;-145.79;34.15;78187.06;5240699;28;20108;-66
2023/05/02 15:27:27;;;;;;;6.63;3.45;;;;;;;-145.79;34.14;78176.47;5241480;28;20030;-66
2023/05/02 15:29:58;;;;;;;7.32;3.90;;;;;;;-145.79;34.59;78208.25;5240052;28;20037;-67
2023/05/02 15:32:30;;;;;;;5.60;3.30;;;;;;;-145.79;34.47;78182.81;5261766;28;20016;-67
2023/05/02 15:35:07;;;;;;;6.85;3.50;;;;;;;-145.79;34.40;78199.78;5268631;28;20536;-67
2023/05/02 15:37:39;;;;;;;17.15;9.05;;;;;;;-145.79;34.12;78195.53;5261006;28;20083;-67
2023/05/02 15:40:11;;;;;;;6.43;4.13;;;;;;;-145.79;33.93;78220.97;5261760;28;20017;-68
2023/05/02 15:42:42;;;;;;;5.22;4.10;;;;;;;-145.79;34.41;78208.25;5261966;28;20033;-68
2023/05/02 15:45:13;;;;;;;9.10;4.43;;;;;;;-145.79;34.79;78199.78;5265932;28;20048;-67
2023/05/02 15:47:45;;;;;;;13.18;9.43;;;;;;;-145.79;35.14;78210.38;5265697;28;20223;-68
2023/05/02 15:50:17;;;;;;;7.75;4.45;;;;;;;-145.79;34.92;78235.81;5263666;28;20028;-68
2023/05/02 15:52:48;;;;;;;7.20;3.97;;;;;;;-145.79;34.83;78210.38;5263664;28;20036;-67
2023/05/02 15:55:19;;;;;;;8.25;3.72;;;;;;;-145.79;34.88;78195.53;5253415;28;20024;-68
2023/05/02 15:57:51;;;;;;;8.18;3.35;;;;;;;-145.79;35.02;78216.72;5264614;28;20028;-67
2023/05/02 16:00:23;;;;;;;9.05;4.30;;;;;;;-145.79;35.28;78201.91;5263644;28;20859;-67
2023/05/02 16:02:54;;;;;;;6.15;3.70;;;;;;;-145.79;35.05;78199.78;5263887;28;20136;-67
2023/05/02 16:05:26;;;;;;;8.93;4.45;;;;;;;-145.79;34.60;78208.25;5263491;28;20376;-67
2023/05/02 16:07:57;;;;;;;10.35;3.90;;;;;;;-145.79;34.55;78199.78;5264377;28;20053;-72
2023/05/02 16:10:29;;;;;;;7.05;3.65;;;;;;;-145.79;34.73;78204.00;5248097;28;20032;-73
2023/05/02 16:13:00;;;;;;;5.05;3.30;;;;;;;-145.79;34.89;78227.34;5265049;28;20423;-71
2023/05/02 16:15:32;;;;;;;6.75;3.95;;;;;;;-145.79;34.93;78242.19;5265859;28;20369;-73
2023/05/02 16:18:03;;;;;;;8.52;3.92;;;;;;;-145.79;34.93;78246.41;5264571;28;20804;-74
2023/05/02 16:20:35;;;;;;;8.93;4.13;;;;;;;-145.79;35.00;78244.28;5264629;28;20025;-73
2023/05/02 16:23:07;;;;;;;7.10;3.88;;;;;;;-145.79;34.95;78229.47;5264997;28;20041;-74
2023/05/02 16:25:38;;;;;;;6.95;3.38;;;;;;;-145.79;35.20;78199.78;5261021;28;20066;-74
2023/05/02 16:28:10;;;;;;;7.50;4.18;;;;;;;-145.79;35.20;78208.25;5243820;28;20038;-73
2023/05/02 16:30:41;;;;;;;8.05;4.43;;;;;;;-145.79;34.76;78225.22;5244658;28;20029;-72
2023/05/02 16:33:12;;;;;;;10.18;3.70;;;;;;;-145.79;35.09;78225.22;5243520;28;20017;-73
2023/05/02 16:35:44;;;;;;;10.23;3.60;;;;;;;-145.79;34.55;78216.72;5244218;28;20392;-73
2023/05/02 16:38:15;;;;;;;8.77;4.25;;;;;;;-145.79;34.66;78208.25;5245005;28;20026;-73
2023/05/02 16:40:47;;;;;;;8.05;3.95;;;;;;;-145.79;34.39;78206.13;5243090;28;20106;-73
2023/05/02 16:43:18;;;;;;;6.38;4.00;;;;;;;-145.79;34.58;78216.72;5245117;28;20033;-72
2023/05/02 16:46:00;;;;;;;9.70;4.00;;;;;;;-145.79;35.09;78182.81;5243540;28;20083;-73
2023/05/02 16:48:34;;;;;;;7.95;3.88;;;;;;;-145.79;34.59;78212.50;5244791;28;20039;-73
2023/05/02 16:51:05;;;;;;;7.53;3.85;;;;;;;-145.79;34.62;78195.53;5243671;28;20440;-73
2023/05/02 16:53:39;;;;;;;10.10;4.43;;;;;;;-145.79;34.39;78210.38;5242673;28;20112;-72
